sensor_id;sensor_type;location;lat;lon;timestamp;pressure;altitude;pressure_sealevel;temperature;humidity
59650;BME280;46162;57.568;25.814;2022-09-16T00:01:28;98461.91;;;8.55;100.00
59650;BME280;46162;57.568;25.814;2022-09-16T00:03:57;98455.69;;;8.55;100.00
59650;BME280;46162;57.568;25.814;2022-09-16T00:06:27;98465.63;;;8.54;100.00
59650;BME280;46162;57.568;25.814;2022-09-16T00:08:58;98469.63;;;8.58;100.00
59650;BME280;46162;57.568;25.814;2022-09-16T00:11:30;98455.31;;;8.58;100.00
59650;BME280;46162;57.568;25.814;2022-09-16T00:14:00;98462.22;;;8.67;100.00
59650;BME280;46162;57.568;25.814;2022-09-16T00:16:29;98458.78;;;8.73;100.00
59650;BME280;46162;57.568;25.814;2022-09-16T00:18:59;98455.13;;;8.88;100.00
59650;BME280;46162;57.568;25.814;2022-09-16T00:21:29;98460.50;;;8.81;100.00
59650;BME280;46162;57.568;25.814;2022-09-16T00:23:59;98470.22;;;8.82;100.00
59650;BME280;46162;57.568;25.814;2022-09-16T00:26:29;98473.72;;;8.82;100.00
59650;BME280;46162;57.568;25.814;2022-09-16T00:28:57;98467.34;;;8.83;100.00
59650;BME280;46162;57.568;25.814;2022-09-16T00:31:26;98463.44;;;8.86;100.00
59650;BME280;46162;57.568;25.814;2022-09-16T00:33:54;98469.22;;;8.90;100.00
59650;BME280;46162;57.568;25.814;2022-09-16T00:36:23;98464.50;;;8.92;100.00
59650;BME280;46162;57.568;25.814;2022-09-16T00:38:52;98454.56;;;8.92;100.00
59650;BME280;46162;57.568;25.814;2022-09-16T00:41:25;98455.59;;;8.91;100.00
59650;BME280;46162;57.568;25.814;2022-09-16T00:43:56;98457.94;;;9.01;100.00
59650;BME280;46162;57.568;25.814;2022-09-16T00:46:30;98453.56;;;9.00;100.00
59650;BME280;46162;57.568;25.814;2022-09-16T00:49:03;98450.28;;;8.98;100.00
59650;BME280;46162;57.568;25.814;2022-09-16T00:51:33;98460.81;;;8.99;100.00
59650;BME280;46162;57.568;25.814;2022-09-16T00:54:03;98453.97;;;8.97;100.00
59650;BME280;46162;57.568;25.814;2022-09-16T00:56:39;98457.94;;;9.01;100.00
59650;BME280;46162;57.568;25.814;2022-09-16T00:59:12;98452.56;;;9.01;100.00
59650;BME280;46162;57.568;25.814;2022-09-16T01:01:42;98453.56;;;9.00;100.00
59650;BME280;46162;57.568;25.814;2022-09-16T01:04:15;98458.81;;;9.08;100.00
59650;BME280;46162;57.568;25.814;2022-09-16T01:06:45;98460.22;;;9.04;100.00
59650;BME280;46162;57.568;25.814;2022-09-16T01:09:14;98454.66;;;9.06;100.00
59650;BME280;46162;57.568;25.814;2022-09-16T01:11:45;98457.78;;;9.09;100.00
59650;BME280;46162;57.568;25.814;2022-09-16T01:14:14;98452.00;;;9.12;100.00
59650;BME280;46162;57.568;25.814;2022-09-16T01:17:07;98461.75;;;9.13;100.00
59650;BME280;46162;57.568;25.814;2022-09-16T01:19:59;98449.13;;;9.14;100.00
59650;BME280;46162;57.568;25.814;2022-09-16T01:22:43;98456.78;;;9.10;100.00
59650;BME280;46162;57.568;25.814;2022-09-16T01:25:22;98450.34;;;9.11;100.00
59650;BME280;46162;57.568;25.814;2022-09-16T01:28:12;98447.06;;;9.16;100.00
59650;BME280;46162;57.568;25.814;2022-09-16T01:31:00;98448.53;;;9.18;100.00
59650;BME280;46162;57.568;25.814;2022-09-16T01:33:37;98454.09;;;9.17;100.00
59650;BME280;46162;57.568;25.814;2022-09-16T01:39:08;98441.50;;;9.17;100.00
59650;BME280;46162;57.568;25.814;2022-09-16T01:41:49;98451.22;;;9.18;100.00
59650;BME280;46162;57.568;25.814;2022-09-16T01:44:26;98441.31;;;9.25;100.00
59650;BME280;46162;57.568;25.814;2022-09-16T01:47:02;98443.38;;;9.23;100.00
59650;BME280;46162;57.568;25.814;2022-09-16T01:49:39;98440.06;;;9.21;100.00
59650;BME280;46162;57.568;25.814;2022-09-16T01:52:18;98445.44;;;9.21;100.00
59650;BME280;46162;57.568;25.814;2022-09-16T01:54:53;98435.53;;;9.29;100.00
59650;BME280;46162;57.568;25.814;2022-09-16T01:57:29;98436.81;;;9.33;100.00
59650;BME280;46162;57.568;25.814;2022-09-16T02:00:05;98443.81;;;9.27;100.00
59650;BME280;46162;57.568;25.814;2022-09-16T02:02:39;98440.91;;;9.29;100.00
59650;BME280;46162;57.568;25.814;2022-09-16T02:05:11;98445.53;;;9.35;100.00
59650;BME280;46162;57.568;25.814;2022-09-16T02:07:46;98444.25;;;9.31;100.00
59650;BME280;46162;57.568;25.814;2022-09-16T02:10:21;98436.41;;;9.36;100.00
59650;BME280;46162;57.568;25.814;2022-09-16T02:12:56;98442.19;;;9.33;100.00
59650;BME280;46162;57.568;25.814;2022-09-16T02:15:26;98443.44;;;9.37;100.00
59650;BME280;46162;57.568;25.814;2022-09-16T02:18:00;98433.72;;;9.36;100.00
59650;BME280;46162;57.568;25.814;2022-09-16T02:20:31;98435.41;;;9.43;100.00
59650;BME280;46162;57.568;25.814;2022-09-16T02:23:05;98433.72;;;9.36;100.00
59650;BME280;46162;57.568;25.814;2022-09-16T02:25:38;98436.81;;;9.33;100.00
59650;BME280;46162;57.568;25.814;2022-09-16T02:28:11;98438.88;;;9.31;100.00
59650;BME280;46162;57.568;25.814;2022-09-16T02:30:44;98435.13;;;9.32;100.00
59650;BME280;46162;57.568;25.814;2022-09-16T02:33:16;98433.28;;;9.32;100.00
59650;BME280;46162;57.568;25.814;2022-09-16T02:35:47;98429.75;;;9.32;100.00
59650;BME280;46162;57.568;25.814;2022-09-16T02:38:21;98435.53;;;9.29;100.00
59650;BME280;46162;57.568;25.814;2022-09-16T02:40:55;98440.28;;;9.26;100.00
59650;BME280;46162;57.568;25.814;2022-09-16T02:43:25;98439.66;;;9.24;100.00
59650;BME280;46162;57.568;25.814;2022-09-16T02:45:58;98433.88;;;9.28;100.00
59650;BME280;46162;57.568;25.814;2022-09-16T02:48:39;98429.91;;;9.23;100.00
59650;BME280;46162;57.568;25.814;2022-09-16T02:51:17;98441.50;;;9.24;100.00
59650;BME280;46162;57.568;25.814;2022-09-16T02:53:54;98433.84;;;9.21;100.00
59650;BME280;46162;57.568;25.814;2022-09-16T02:56:28;98435.06;;;9.18;100.00
59650;BME280;46162;57.568;25.814;2022-09-16T02:58:59;98438.16;;;9.15;100.00
59650;BME280;46162;57.568;25.814;2022-09-16T03:01:31;98432.78;;;9.22;100.00
59650;BME280;46162;57.568;25.814;2022-09-16T03:04:03;98436.47;;;9.14;100.00
59650;BME280;46162;57.568;25.814;2022-09-16T03:06:32;98445.59;;;9.13;100.00
59650;BME280;46162;57.568;25.814;2022-09-16T03:09:04;98435.84;;;9.12;100.00
59650;BME280;46162;57.568;25.814;2022-09-16T03:11:58;98439.19;;;9.14;100.00
59650;BME280;46162;57.568;25.814;2022-09-16T03:14:47;98439.56;;;9.11;100.00
59650;BME280;46162;57.568;25.814;2022-09-16T03:20:23;98441.22;;;9.12;100.00
59650;BME280;46162;57.568;25.814;2022-09-16T03:23:03;98439.97;;;9.08;100.00
59650;BME280;46162;57.568;25.814;2022-09-16T03:25:43;98440.38;;;9.05;100.00
59650;BME280;46162;57.568;25.814;2022-09-16T03:28:17;98431.03;;;9.01;100.00
59650;BME280;46162;57.568;25.814;2022-09-16T03:30:52;98426.03;;;8.98;100.00
59650;BME280;46162;57.568;25.814;2022-09-16T03:33:27;98423.53;;;8.96;100.00
59650;BME280;46162;57.568;25.814;2022-09-16T03:36:02;98423.34;;;8.98;100.00
59650;BME280;46162;57.568;25.814;2022-09-16T03:38:34;98418.34;;;8.95;100.00
59650;BME280;46162;57.568;25.814;2022-09-16T03:41:05;98424.13;;;8.92;100.00
59650;BME280;46162;57.568;25.814;2022-09-16T03:43:35;98424.75;;;8.94;100.00
59650;BME280;46162;57.568;25.814;2022-09-16T03:46:09;98431.97;;;8.87;100.00
59650;BME280;46162;57.568;25.814;2022-09-16T03:48:38;98431.13;;;8.86;100.00
59650;BME280;46162;57.568;25.814;2022-09-16T03:51:08;98427.63;;;8.86;100.00
59650;BME280;46162;57.568;25.814;2022-09-16T03:53:37;98428.31;;;8.73;100.00
59650;BME280;46162;57.568;25.814;2022-09-16T03:56:06;98424.81;;;8.72;100.00
59650;BME280;46162;57.568;25.814;2022-09-16T03:58:34;98428.38;;;8.79;100.00
59650;BME280;46162;57.568;25.814;2022-09-16T04:01:03;98427.84;;;8.91;100.00
59650;BME280;46162;57.568;25.814;2022-09-16T04:03:32;98425.53;;;8.88;100.00
59650;BME280;46162;57.568;25.814;2022-09-16T04:06:03;98435.69;;;8.86;100.00
59650;BME280;46162;57.568;25.814;2022-09-16T04:08:35;98430.59;;;8.69;100.00
59650;BME280;46162;57.568;25.814;2022-09-16T04:11:08;98431.63;;;8.68;100.00
59650;BME280;46162;57.568;25.814;2022-09-16T04:13:37;98416.88;;;8.64;100.00
59650;BME280;46162;57.568;25.814;2022-09-16T04:16:05;98419.00;;;8.69;100.00
59650;BME280;46162;57.568;25.814;2022-09-16T04:18:34;98426.34;;;8.81;100.00
59650;BME280;46162;57.568;25.814;2022-09-16T04:21:03;98419.91;;;8.82;100.00
59650;BME280;46162;57.568;25.814;2022-09-16T04:23:33;98422.38;;;8.77;100.00
59650;BME280;46162;57.568;25.814;2022-09-16T04:26:03;98414.94;;;8.79;100.00
59650;BME280;46162;57.568;25.814;2022-09-16T04:28:32;98414.94;;;8.79;100.00
59650;BME280;46162;57.568;25.814;2022-09-16T04:31:02;98410.00;;;8.83;100.00
59650;BME280;46162;57.568;25.814;2022-09-16T04:33:33;98406.28;;;8.84;100.00
59650;BME280;46162;57.568;25.814;2022-09-16T04:36:04;98406.13;;;8.92;100.00
59650;BME280;46162;57.568;25.814;2022-09-16T04:38:34;98411.50;;;8.92;100.00
59650;BME280;46162;57.568;25.814;2022-09-16T04:41:05;98403.00;;;8.89;100.00
59650;BME280;46162;57.568;25.814;2022-09-16T04:43:34;98404.00;;;8.88;100.00
59650;BME280;46162;57.568;25.814;2022-09-16T04:46:03;98417.09;;;8.91;100.00
59650;BME280;46162;57.568;25.814;2022-09-16T04:48:33;98407.56;;;8.88;100.00
59650;BME280;46162;57.568;25.814;2022-09-16T04:51:04;98415.00;;;8.86;100.00
59650;BME280;46162;57.568;25.814;2022-09-16T04:53:34;98409.78;;;8.85;100.00
59650;BME280;46162;57.568;25.814;2022-09-16T04:56:05;98410.91;;;8.97;100.00
59650;BME280;46162;57.568;25.814;2022-09-16T04:58:34;98409.38;;;8.88;100.00
59650;BME280;46162;57.568;25.814;2022-09-16T05:01:05;98414.41;;;8.91;100.00
59650;BME280;46162;57.568;25.814;2022-09-16T05:03:34;98413.56;;;8.90;100.00
59650;BME280;46162;57.568;25.814;2022-09-16T05:06:04;98415.03;;;8.93;100.00
59650;BME280;46162;57.568;25.814;2022-09-16T05:08:35;98402.19;;;8.95;100.00
59650;BME280;46162;57.568;25.814;2022-09-16T05:11:08;98402.19;;;8.95;100.00
59650;BME280;46162;57.568;25.814;2022-09-16T05:13:38;98397.75;;;9.09;100.00
59650;BME280;46162;57.568;25.814;2022-09-16T05:16:08;98408.91;;;9.06;100.00
59650;BME280;46162;57.568;25.814;2022-09-16T05:18:39;98403.13;;;9.09;100.00
59650;BME280;46162;57.568;25.814;2022-09-16T05:21:11;98402.13;;;9.16;100.00
59650;BME280;46162;57.568;25.814;2022-09-16T05:23:42;98405.22;;;9.13;100.00
59650;BME280;46162;57.568;25.814;2022-09-16T05:26:14;98399.00;;;9.13;100.00
59650;BME280;46162;57.568;25.814;2022-09-16T05:28:43;98397.78;;;9.15;100.00
59650;BME280;46162;57.568;25.814;2022-09-16T05:31:13;98393.22;;;9.16;100.00
59650;BME280;46162;57.568;25.814;2022-09-16T05:33:44;98388.84;;;9.15;100.00
59650;BME280;46162;57.568;25.814;2022-09-16T05:36:14;98388.25;;;9.19;100.00
59650;BME280;46162;57.568;25.814;2022-09-16T05:38:45;98391.13;;;9.11;100.00
59650;BME280;46162;57.568;25.814;2022-09-16T05:41:34;98391.13;;;9.11;100.00
59650;BME280;46162;57.568;25.814;2022-09-16T05:44:02;98387.38;;;9.12;100.00
59650;BME280;46162;57.568;25.814;2022-09-16T05:46:32;98389.91;;;9.14;100.00
59650;BME280;46162;57.568;25.814;2022-09-16T05:49:02;98380.75;;;9.08;100.00
59650;BME280;46162;57.568;25.814;2022-09-16T05:51:30;98391.13;;;9.11;100.00
59650;BME280;46162;57.568;25.814;2022-09-16T05:54:01;98378.72;;;9.10;100.00
59650;BME280;46162;57.568;25.814;2022-09-16T05:56:29;98385.56;;;9.19;100.00
59650;BME280;46162;57.568;25.814;2022-09-16T05:59:00;98372.56;;;9.23;100.00
59650;BME280;46162;57.568;25.814;2022-09-16T06:01:31;98372.09;;;9.19;100.00
59650;BME280;46162;57.568;25.814;2022-09-16T06:04:00;98374.56;;;9.14;100.00
59650;BME280;46162;57.568;25.814;2022-09-16T06:06:31;98374.16;;;9.11;100.00
59650;BME280;46162;57.568;25.814;2022-09-16T06:09:13;98373.16;;;9.18;100.00
59650;BME280;46162;57.568;25.814;2022-09-16T06:11:45;98376.94;;;9.31;100.00
59650;BME280;46162;57.568;25.814;2022-09-16T06:14:15;98369.72;;;9.38;100.00
59650;BME280;46162;57.568;25.814;2022-09-16T06:16:45;98372.44;;;9.51;100.00
59650;BME280;46162;57.568;25.814;2022-09-16T06:19:15;98375.16;;;9.51;100.00
59650;BME280;46162;57.568;25.814;2022-09-16T06:21:44;98372.69;;;9.56;100.00
59650;BME280;46162;57.568;25.814;2022-09-16T06:24:16;98370.19;;;9.61;100.00
59650;BME280;46162;57.568;25.814;2022-09-16T06:26:46;98371.88;;;9.69;100.00
59650;BME280;46162;57.568;25.814;2022-09-16T06:29:16;98376.88;;;9.72;100.00
59650;BME280;46162;57.568;25.814;2022-09-16T06:31:45;98383.94;;;9.80;100.00
59650;BME280;46162;57.568;25.814;2022-09-16T06:34:15;98370.88;;;9.83;100.00
59650;BME280;46162;57.568;25.814;2022-09-16T06:36:45;98379.41;;;9.87;100.00
59650;BME280;46162;57.568;25.814;2022-09-16T06:39:15;98374.25;;;9.92;100.00
59650;BME280;46162;57.568;25.814;2022-09-16T06:41:44;98377.78;;;9.99;100.00
59650;BME280;46162;57.568;25.814;2022-09-16T06:44:13;98375.31;;;10.04;100.00
59650;BME280;46162;57.568;25.814;2022-09-16T06:46:42;98369.50;;;10.07;100.00
59650;BME280;46162;57.568;25.814;2022-09-16T06:49:11;98366.38;;;10.17;100.00
59650;BME280;46162;57.568;25.814;2022-09-16T06:51:39;98369.13;;;10.30;100.00
59650;BME280;46162;57.568;25.814;2022-09-16T06:54:09;98375.34;;;10.31;100.00
59650;BME280;46162;57.568;25.814;2022-09-16T06:56:39;98372.88;;;10.29;100.00
59650;BME280;46162;57.568;25.814;2022-09-16T06:59:09;98375.78;;;10.35;100.00
59650;BME280;46162;57.568;25.814;2022-09-16T07:01:40;98379.50;;;10.40;100.00
59650;BME280;46162;57.568;25.814;2022-09-16T07:04:09;98379.09;;;10.50;100.00
59650;BME280;46162;57.568;25.814;2022-09-16T07:06:39;98384.06;;;10.66;100.00
59650;BME280;46162;57.568;25.814;2022-09-16T07:09:28;98380.75;;;10.71;100.00
59650;BME280;46162;57.568;25.814;2022-09-16T07:11:59;98379.66;;;10.85;100.00
59650;BME280;46162;57.568;25.814;2022-09-16T07:14:28;98381.97;;;10.88;100.00
59650;BME280;46162;57.568;25.814;2022-09-16T07:16:58;98376.75;;;10.93;100.00
59650;BME280;46162;57.568;25.814;2022-09-16T07:19:27;98381.94;;;11.02;100.00
59650;BME280;46162;57.568;25.814;2022-09-16T07:21:56;98383.19;;;11.06;100.00
59650;BME280;46162;57.568;25.814;2022-09-16T07:24:25;98376.97;;;10.98;100.00
59650;BME280;46162;57.568;25.814;2022-09-16T07:26:54;98380.88;;;11.03;100.00
59650;BME280;46162;57.568;25.814;2022-09-16T07:29:24;98387.31;;;11.08;100.00
59650;BME280;46162;57.568;25.814;2022-09-16T07:31:53;98395.81;;;11.12;100.00
59650;BME280;46162;57.568;25.814;2022-09-16T07:34:22;98387.47;;;11.20;100.00
59650;BME280;46162;57.568;25.814;2022-09-16T07:36:51;98387.28;;;11.28;100.00
59650;BME280;46162;57.568;25.814;2022-09-16T07:39:19;98387.47;;;11.33;100.00
59650;BME280;46162;57.568;25.814;2022-09-16T07:41:48;98388.88;;;11.43;100.00
59650;BME280;46162;57.568;25.814;2022-09-16T07:44:18;98382.44;;;11.37;100.00
59650;BME280;46162;57.568;25.814;2022-09-16T07:46:49;98391.41;;;11.37;100.00
59650;BME280;46162;57.568;25.814;2022-09-16T07:49:18;98393.03;;;11.45;100.00
59650;BME280;46162;57.568;25.814;2022-09-16T07:51:47;98384.84;;;11.65;100.00
59650;BME280;46162;57.568;25.814;2022-09-16T07:54:16;98399.97;;;11.73;100.00
59650;BME280;46162;57.568;25.814;2022-09-16T07:56:46;98384.75;;;11.78;100.00
59650;BME280;46162;57.568;25.814;2022-09-16T07:59:16;98386.81;;;11.83;100.00
59650;BME280;46162;57.568;25.814;2022-09-16T08:01:46;98397.44;;;11.84;100.00
59650;BME280;46162;57.568;25.814;2022-09-16T08:04:18;98393.69;;;11.79;100.00
59650;BME280;46162;57.568;25.814;2022-09-16T08:06:47;98404.31;;;11.80;100.00
59650;BME280;46162;57.568;25.814;2022-09-16T08:09:16;98396.59;;;11.84;100.00
59650;BME280;46162;57.568;25.814;2022-09-16T08:12:06;98392.22;;;11.83;100.00
59650;BME280;46162;57.568;25.814;2022-09-16T08:14:37;98393.66;;;11.86;100.00
59650;BME280;46162;57.568;25.814;2022-09-16T08:17:06;98387.44;;;11.85;100.00
59650;BME280;46162;57.568;25.814;2022-09-16T08:19:36;98390.56;;;11.89;100.00
59650;BME280;46162;57.568;25.814;2022-09-16T08:22:07;98395.34;;;11.87;100.00
59650;BME280;46162;57.568;25.814;2022-09-16T08:24:36;98393.25;;;11.89;100.00
59650;BME280;46162;57.568;25.814;2022-09-16T08:27:05;98398.22;;;11.92;100.00
59650;BME280;46162;57.568;25.814;2022-09-16T08:29:33;98397.19;;;11.86;100.00
59650;BME280;46162;57.568;25.814;2022-09-16T08:32:02;98402.84;;;11.84;100.00
59650;BME280;46162;57.568;25.814;2022-09-16T08:34:31;98399.50;;;11.89;100.00
59650;BME280;46162;57.568;25.814;2022-09-16T08:37:01;98407.00;;;11.80;100.00
59650;BME280;46162;57.568;25.814;2022-09-16T08:39:30;98403.69;;;11.78;100.00
59650;BME280;46162;57.568;25.814;2022-09-16T08:45:20;98397.47;;;11.78;100.00
59650;BME280;46162;57.568;25.814;2022-09-16T08:48:02;98400.53;;;11.81;100.00
59650;BME280;46162;57.568;25.814;2022-09-16T08:50:40;98397.66;;;11.76;100.00
59650;BME280;46162;57.568;25.814;2022-09-16T08:53:14;98401.19;;;11.77;100.00
59650;BME280;46162;57.568;25.814;2022-09-16T08:55:48;98401.16;;;11.83;100.00
59650;BME280;46162;57.568;25.814;2022-09-16T08:58:19;98402.84;;;11.84;100.00
59650;BME280;46162;57.568;25.814;2022-09-16T09:00:53;98405.53;;;11.91;100.00
59650;BME280;46162;57.568;25.814;2022-09-16T09:03:32;98399.50;;;11.89;100.00
59650;BME280;46162;57.568;25.814;2022-09-16T09:06:05;98391.94;;;12.04;100.00
59650;BME280;46162;57.568;25.814;2022-09-16T09:08:49;98395.81;;;12.15;100.00
59650;BME280;46162;57.568;25.814;2022-09-16T09:11:28;98402.81;;;12.30;100.00
59650;BME280;46162;57.568;25.814;2022-09-16T09:14:11;98403.66;;;12.23;100.00
59650;BME280;46162;57.568;25.814;2022-09-16T09:16:55;98400.56;;;12.20;100.00
59650;BME280;46162;57.568;25.814;2022-09-16T09:19:35;98402.69;;;12.11;100.00
59650;BME280;46162;57.568;25.814;2022-09-16T09:22:16;98415.19;;;12.12;100.00
59650;BME280;46162;57.568;25.814;2022-09-16T09:25:19;98399.31;;;12.22;100.00
59650;BME280;46162;57.568;25.814;2022-09-16T09:28:00;98404.69;;;12.29;100.00
59650;BME280;46162;57.568;25.814;2022-09-16T09:30:32;98409.66;;;12.32;100.00
59650;BME280;46162;57.568;25.814;2022-09-16T09:33:13;98403.81;;;12.29;100.00
59650;BME280;46162;57.568;25.814;2022-09-16T09:36:19;98404.53;;;12.49;100.00
59650;BME280;46162;57.568;25.814;2022-09-16T09:39:24;98404.56;;;12.42;100.00
59650;BME280;46162;57.568;25.814;2022-09-16T09:42:02;98406.47;;;12.42;100.00
59650;BME280;46162;57.568;25.814;2022-09-16T09:44:40;98403.78;;;12.35;100.00
59650;BME280;46162;57.568;25.814;2022-09-16T09:47:19;98400.75;;;12.25;100.00
59650;BME280;46162;57.568;25.814;2022-09-16T09:49:52;98400.91;;;12.30;100.00
59650;BME280;46162;57.568;25.814;2022-09-16T09:52:29;98405.94;;;12.26;100.00
59650;BME280;46162;57.568;25.814;2022-09-16T09:55:13;98409.13;;;12.17;100.00
59650;BME280;46162;57.568;25.814;2022-09-16T09:57:55;98408.97;;;12.12;100.00
59650;BME280;46162;57.568;25.814;2022-09-16T10:00:27;98407.94;;;12.06;100.00
59650;BME280;46162;57.568;25.814;2022-09-16T10:03:03;98408.84;;;11.93;100.00
59650;BME280;46162;57.568;25.814;2022-09-16T10:05:32;98411.06;;;12.03;100.00
59650;BME280;46162;57.568;25.814;2022-09-16T10:08:04;98407.81;;;12.26;100.00
59650;BME280;46162;57.568;25.814;2022-09-16T10:10:46;98413.97;;;12.40;100.00
59650;BME280;46162;57.568;25.814;2022-09-16T10:13:17;98406.00;;;12.45;100.00
59650;BME280;46162;57.568;25.814;2022-09-16T10:15:48;98416.13;;;12.56;100.00
59650;BME280;46162;57.568;25.814;2022-09-16T10:18:25;98416.13;;;12.56;100.00
59650;BME280;46162;57.568;25.814;2022-09-16T10:21:02;98411.59;;;12.50;100.00
59650;BME280;46162;57.568;25.814;2022-09-16T10:23:32;98414.50;;;12.48;100.00
59650;BME280;46162;57.568;25.814;2022-09-16T10:26:15;98417.44;;;12.47;100.00
59650;BME280;46162;57.568;25.814;2022-09-16T10:29:01;98426.66;;;12.39;100.00
59650;BME280;46162;57.568;25.814;2022-09-16T10:31:34;98412.97;;;12.34;100.00
59650;BME280;46162;57.568;25.814;2022-09-16T10:34:13;98419.47;;;12.26;100.00
59650;BME280;46162;57.568;25.814;2022-09-16T10:36:44;98414.72;;;12.22;100.00
59650;BME280;46162;57.568;25.814;2022-09-16T10:39:22;98422.22;;;12.20;100.00
59650;BME280;46162;57.568;25.814;2022-09-16T10:41:52;98423.22;;;12.25;100.00
59650;BME280;46162;57.568;25.814;2022-09-16T10:44:25;98418.59;;;12.33;100.00
59650;BME280;46162;57.568;25.814;2022-09-16T10:46:56;98419.50;;;12.52;100.00
59650;BME280;46162;57.568;25.814;2022-09-16T10:49:33;98420.78;;;12.49;100.00
59650;BME280;46162;57.568;25.814;2022-09-16T10:52:13;98416.56;;;12.53;100.00
59650;BME280;46162;57.568;25.814;2022-09-16T10:54:43;98420.66;;;12.62;100.00
59650;BME280;46162;57.568;25.814;2022-09-16T10:57:24;98416.78;;;12.77;100.00
59650;BME280;46162;57.568;25.814;2022-09-16T11:00:01;98417.13;;;12.87;100.00
59650;BME280;46162;57.568;25.814;2022-09-16T11:03:00;98419.22;;;12.85;100.00
59650;BME280;46162;57.568;25.814;2022-09-16T11:05:38;98419.06;;;12.80;100.00
59650;BME280;46162;57.568;25.814;2022-09-16T11:08:19;98412.88;;;12.73;100.00
59650;BME280;46162;57.568;25.814;2022-09-16T11:10:58;98419.38;;;12.65;100.00
59650;BME280;46162;57.568;25.814;2022-09-16T11:13:37;98425.28;;;12.55;100.00
59650;BME280;46162;57.568;25.814;2022-09-16T11:16:22;98415.41;;;12.42;100.00
59650;BME280;46162;57.568;25.814;2022-09-16T11:19:01;98428.72;;;12.44;100.00
59650;BME280;46162;57.568;25.814;2022-09-16T11:21:53;98416.47;;;12.41;100.00
59650;BME280;46162;57.568;25.814;2022-09-16T11:27:31;98422.25;;;12.45;100.00
59650;BME280;46162;57.568;25.814;2022-09-16T11:30:09;98420.13;;;12.54;100.00
59650;BME280;46162;57.568;25.814;2022-09-16T11:32:55;98427.84;;;12.50;100.00
59650;BME280;46162;57.568;25.814;2022-09-16T11:36:00;98434.13;;;12.44;100.00
59650;BME280;46162;57.568;25.814;2022-09-16T11:38:37;98428.84;;;12.24;100.00
59650;BME280;46162;57.568;25.814;2022-09-16T11:41:20;98424.41;;;12.04;100.00
59650;BME280;46162;57.568;25.814;2022-09-16T11:44:21;98430.84;;;12.03;100.00
59650;BME280;46162;57.568;25.814;2022-09-16T11:47:01;98423.97;;;12.01;100.00
59650;BME280;46162;57.568;25.814;2022-09-16T11:49:50;98420.94;;;12.22;100.00
59650;BME280;46162;57.568;25.814;2022-09-16T11:52:36;98415.44;;;12.36;100.00
59650;BME280;46162;57.568;25.814;2022-09-16T11:55:32;98416.66;;;12.40;100.00
59650;BME280;46162;57.568;25.814;2022-09-16T11:58:02;98413.13;;;12.39;100.00
59650;BME280;46162;57.568;25.814;2022-09-16T12:00:33;98413.69;;;12.48;100.00
59650;BME280;46162;57.568;25.814;2022-09-16T12:03:09;98408.88;;;12.50;100.00
59650;BME280;46162;57.568;25.814;2022-09-16T12:05:43;98413.84;;;12.53;100.00
59650;BME280;46162;57.568;25.814;2022-09-16T12:08:19;98405.19;;;12.69;100.00
59650;BME280;46162;57.568;25.814;2022-09-16T12:10:52;98418.94;;;12.68;100.00
59650;BME280;46162;57.568;25.814;2022-09-16T12:13:25;98411.47;;;12.63;100.00
59650;BME280;46162;57.568;25.814;2022-09-16T12:16:00;98406.06;;;12.63;100.00
59650;BME280;46162;57.568;25.814;2022-09-16T12:18:33;98413.16;;;12.64;100.00
59650;BME280;46162;57.568;25.814;2022-09-16T12:21:09;98420.03;;;12.60;100.00
59650;BME280;46162;57.568;25.814;2022-09-16T12:23:44;98416.03;;;12.69;100.00
59650;BME280;46162;57.568;25.814;2022-09-16T12:26:17;98410.81;;;12.68;100.00
59650;BME280;46162;57.568;25.814;2022-09-16T12:29:01;98421.03;;;12.66;100.00
59650;BME280;46162;57.568;25.814;2022-09-16T12:31:34;98410.59;;;12.69;100.00
59650;BME280;46162;57.568;25.814;2022-09-16T12:34:10;98408.09;;;12.68;100.00
59650;BME280;46162;57.568;25.814;2022-09-16T12:36:46;98415.47;;;12.61;100.00
59650;BME280;46162;57.568;25.814;2022-09-16T12:39:17;98422.22;;;12.52;100.00
59650;BME280;46162;57.568;25.814;2022-09-16T12:42:15;98412.16;;;12.59;100.00
59650;BME280;46162;57.568;25.814;2022-09-16T12:45:03;98416.13;;;12.56;100.00
59650;BME280;46162;57.568;25.814;2022-09-16T12:48:01;98408.22;;;12.55;100.00
59650;BME280;46162;57.568;25.814;2022-09-16T12:51:06;98413.84;;;12.53;100.00
59650;BME280;46162;57.568;25.814;2022-09-16T12:53:57;98410.81;;;12.43;100.00
59650;BME280;46162;57.568;25.814;2022-09-16T12:56:49;98408.75;;;12.38;100.00
59650;BME280;46162;57.568;25.814;2022-09-16T12:59:55;98404.84;;;12.34;100.00
59650;BME280;46162;57.568;25.814;2022-09-16T13:02:33;98406.13;;;12.32;100.00
59650;BME280;46162;57.568;25.814;2022-09-16T13:05:11;98403.59;;;12.37;100.00
59650;BME280;46162;57.568;25.814;2022-09-16T13:07:42;98401.75;;;12.31;100.00
59650;BME280;46162;57.568;25.814;2022-09-16T13:10:20;98400.16;;;12.48;100.00
59650;BME280;46162;57.568;25.814;2022-09-16T13:13:19;98393.44;;;12.57;100.00
59650;BME280;46162;57.568;25.814;2022-09-16T13:15:55;98393.38;;;12.64;100.00
59650;BME280;46162;57.568;25.814;2022-09-16T13:18:38;98391.94;;;12.61;100.00
59650;BME280;46162;57.568;25.814;2022-09-16T13:21:20;98380.81;;;12.69;100.00
59650;BME280;46162;57.568;25.814;2022-09-16T13:23:58;98388.81;;;12.83;100.00
59650;BME280;46162;57.568;25.814;2022-09-16T13:26:39;98390.34;;;12.79;100.00
59650;BME280;46162;57.568;25.814;2022-09-16T13:29:39;98393.97;;;12.66;100.00
59650;BME280;46162;57.568;25.814;2022-09-16T13:32:27;98390.06;;;12.62;100.00
59650;BME280;46162;57.568;25.814;2022-09-16T13:35:00;98402.16;;;12.59;100.00
59650;BME280;46162;57.568;25.814;2022-09-16T13:37:29;98409.50;;;12.52;100.00